createdAt,value
2023-01-07T00:02:57.378Z,76.44
2023-01-07T00:07:59.362Z,77.04
2023-01-07T00:13:00.030Z,76.16
2023-01-07T00:18:02.035Z,75.61
2023-01-07T00:23:03.174Z,75.39
2023-01-07T00:28:03.958Z,75.78
2023-01-07T00:33:07.254Z,75.35
2023-01-07T00:38:08.129Z,74.99
2023-01-07T00:43:08.820Z,75.10
2023-01-07T00:48:11.330Z,75.13
2023-01-07T00:53:12.875Z,74.72
2023-01-07T00:58:16.390Z,74.76
2023-01-07T01:03:19.456Z,74.79
2023-01-07T01:08:21.260Z,75.06
2023-01-07T01:13:22.186Z,75.27
2023-01-07T01:18:24.201Z,75.34
2023-01-07T01:23:24.885Z,75.20
2023-01-07T01:28:25.523Z,75.11
2023-01-07T01:33:27.518Z,75.88
2023-01-07T01:38:28.189Z,76.95
2023-01-07T01:43:31.900Z,78.06
2023-01-07T01:48:38.687Z,78.92
2023-01-07T01:53:39.403Z,78.88
2023-01-07T01:58:43.176Z,79.31
2023-01-07T02:03:47.391Z,79.22
2023-01-07T02:08:51.847Z,79.33
2023-01-07T02:14:10.037Z,79.33
2023-01-07T02:19:47.305Z,79.33
2023-01-07T02:25:08.104Z,79.14
2023-01-07T02:30:41.438Z,79.25
2023-01-07T02:36:09.733Z,78.89
2023-01-07T02:41:20.938Z,78.86
2023-01-07T02:46:28.623Z,79.09
2023-01-07T02:51:34.843Z,79.07
2023-01-07T02:56:51.617Z,78.95
2023-01-07T03:02:21.065Z,78.81
2023-01-07T03:07:34.959Z,78.70
2023-01-07T03:12:41.670Z,78.33
2023-01-07T03:17:49.208Z,78.13
2023-01-07T03:22:52.746Z,78.55
2023-01-07T03:27:54.543Z,78.15
2023-01-07T03:33:01.436Z,74.85
2023-01-07T03:38:05.469Z,74.76
2023-01-07T03:43:06.137Z,73.53
2023-01-07T03:48:07.825Z,74.31
2023-01-07T03:53:12.792Z,73.37
2023-01-07T03:58:15.320Z,72.80
2023-01-07T04:03:16.012Z,73.20
2023-01-07T04:08:21.198Z,72.79
2023-01-07T04:13:22.010Z,73.82
2023-01-07T04:18:24.368Z,73.36
2023-01-07T04:23:26.454Z,73.53
2023-01-07T04:28:28.829Z,74.42
2023-01-07T04:33:29.589Z,73.60
2023-01-07T04:38:31.818Z,74.45
2023-01-07T04:43:32.640Z,75.37
2023-01-07T04:48:33.612Z,75.27
2023-01-07T04:53:35.736Z,75.96
2023-01-07T04:58:38.172Z,74.92
2023-01-07T05:03:39.084Z,74.27
2023-01-07T05:08:41.516Z,75.55
2023-01-07T05:13:42.304Z,76.13
2023-01-07T05:18:43.064Z,76.38
2023-01-07T05:23:45.603Z,76.13
2023-01-07T05:28:46.935Z,76.51
2023-01-07T05:33:47.892Z,76.49
2023-01-07T05:38:50.678Z,75.98
2023-01-07T05:43:51.467Z,75.54
2023-01-07T05:48:54.149Z,75.24
2023-01-07T05:53:56.328Z,75.54
2023-01-07T05:58:57.023Z,75.16
2023-01-07T06:03:57.700Z,75.16
2023-01-07T06:08:59.727Z,74.88
2023-01-07T06:14:00.426Z,74.59
2023-01-07T06:19:01.112Z,74.13
2023-01-07T06:24:03.137Z,73.66
2023-01-07T06:29:03.792Z,73.90
2023-01-07T06:34:04.534Z,73.77
2023-01-07T06:39:06.574Z,72.99
2023-01-07T06:44:07.597Z,73.59
2023-01-07T06:49:08.242Z,72.83
2023-01-07T06:54:11.559Z,73.50
2023-01-07T06:59:12.503Z,73.62
2023-01-07T07:04:13.191Z,74.61
2023-01-07T07:09:15.177Z,74.04
2023-01-07T07:14:15.865Z,74.00
2023-01-07T07:19:16.544Z,74.59
2023-01-07T07:24:18.522Z,75.14
2023-01-07T07:29:21.669Z,76.93
2023-01-07T07:34:22.440Z,78.52
2023-01-07T07:39:24.502Z,79.45
2023-01-07T07:44:25.274Z,80.66
2023-01-07T07:49:25.930Z,80.54
2023-01-07T07:54:28.454Z,80.57
2023-01-07T07:59:29.095Z,80.48
2023-01-07T08:04:34.000Z,80.10
2023-01-07T08:09:36.104Z,79.39
2023-01-07T08:14:37.230Z,78.70
2023-01-07T08:19:37.924Z,79.38
2023-01-07T08:24:39.907Z,77.58
2023-01-07T08:29:40.595Z,79.93
2023-01-07T08:34:41.435Z,76.67
2023-01-07T08:39:43.441Z,77.15
2023-01-07T08:44:44.154Z,73.20
2023-01-07T08:49:44.833Z,72.78
2023-01-07T08:54:48.098Z,73.19
2023-01-07T08:59:49.023Z,72.19
2023-01-07T09:04:49.723Z,72.53
2023-01-07T09:09:51.751Z,71.39
2023-01-07T09:14:53.670Z,70.80
2023-01-07T09:19:54.465Z,70.91
2023-01-07T09:24:56.492Z,71.15
2023-01-07T09:29:58.586Z,70.22
2023-01-07T09:34:59.456Z,70.15
2023-01-07T09:40:01.631Z,70.39
2023-01-07T09:45:11.691Z,70.65
2023-01-07T09:50:22.262Z,70.58
2023-01-07T09:55:32.858Z,72.00
2023-01-07T10:00:38.323Z,72.87
2023-01-07T10:05:47.968Z,72.85
2023-01-07T10:10:56.419Z,74.65
2023-01-07T10:16:04.498Z,71.35
2023-01-07T10:21:15.754Z,70.85
2023-01-07T10:26:29.078Z,70.54
2023-01-07T10:31:30.721Z,69.68
2023-01-07T10:36:39.690Z,69.06
2023-01-07T10:41:53.936Z,69.14
2023-01-07T10:47:06.464Z,69.14
2023-01-07T10:52:17.167Z,69.54
2023-01-07T10:57:22.155Z,69.20
2023-01-07T11:02:27.335Z,69.11
2023-01-07T11:07:40.269Z,68.66
2023-01-07T11:12:46.442Z,65.97
2023-01-07T11:17:49.996Z,66.13
2023-01-07T11:22:50.717Z,65.56
2023-01-07T11:27:53.374Z,67.18
2023-01-07T11:32:59.576Z,66.98
2023-01-07T11:38:01.230Z,65.69
2023-01-07T11:43:21.761Z,66.68
2023-01-07T11:48:29.977Z,66.41
2023-01-07T11:53:42.879Z,66.71
2023-01-07T11:58:47.839Z,67.16
2023-01-07T12:04:10.329Z,66.80
2023-01-07T12:09:23.602Z,66.40
2023-01-07T12:14:29.397Z,67.01
2023-01-07T12:19:50.974Z,66.81
2023-01-07T12:25:09.946Z,67.39
2023-01-07T12:30:29.991Z,66.17
2023-01-07T12:35:34.267Z,67.34
2023-01-07T12:40:41.787Z,66.62
2023-01-07T12:45:50.165Z,66.33
2023-01-07T12:50:55.225Z,66.41
2023-01-07T12:56:00.090Z,65.88
2023-01-07T13:01:08.073Z,66.60
2023-01-07T13:06:15.366Z,66.47
2023-01-07T13:11:42.655Z,67.53
2023-01-07T13:16:45.127Z,66.84
2023-01-07T13:21:49.205Z,66.94
2023-01-07T13:26:59.395Z,65.65
2023-01-07T13:32:25.675Z,65.81
2023-01-07T13:37:47.032Z,64.48
2023-01-07T13:42:53.549Z,62.36
2023-01-07T13:47:59.192Z,60.74
2023-01-07T13:53:02.796Z,59.56
2023-01-07T13:58:04.244Z,60.18
2023-01-07T14:03:35.656Z,61.26
2023-01-07T14:08:37.630Z,62.94
2023-01-07T14:13:43.989Z,63.13
2023-01-07T14:19:07.926Z,63.13
2023-01-07T14:24:26.230Z,63.28
2023-01-07T14:29:42.182Z,62.43
2023-01-07T14:34:54.910Z,62.88
2023-01-07T14:39:55.618Z,62.82
2023-01-07T14:44:56.320Z,63.06
2023-01-07T14:50:18.973Z,62.96
2023-01-07T14:55:42.441Z,64.63
2023-01-07T15:00:59.457Z,65.45
2023-01-07T15:06:25.011Z,65.88
2023-01-07T15:11:44.910Z,66.88
2023-01-07T15:16:50.182Z,67.72
2023-01-07T15:22:06.063Z,68.88
2023-01-07T15:27:14.588Z,68.96
2023-01-07T15:32:27.932Z,69.62
2023-01-07T15:37:30.106Z,70.02
2023-01-07T15:42:32.922Z,69.84
2023-01-07T15:47:39.076Z,70.44
2023-01-07T15:52:41.142Z,70.54
2023-01-07T15:57:44.037Z,70.67
2023-01-07T16:02:45.688Z,71.82
2023-01-07T16:07:53.806Z,71.37
2023-01-07T16:12:57.067Z,71.57
2023-01-07T16:17:59.669Z,72.31
2023-01-07T16:23:21.258Z,71.79
2023-01-07T16:28:24.770Z,71.97
2023-01-07T16:33:28.800Z,72.54
2023-01-07T16:38:33.548Z,72.91
2023-01-07T16:43:45.868Z,73.21
2023-01-07T16:48:47.214Z,74.24
2023-01-07T16:53:50.428Z,73.13
2023-01-07T16:58:53.949Z,73.32
2023-01-07T17:03:58.562Z,73.97
2023-01-07T17:09:00.949Z,74.09
2023-01-07T17:14:01.728Z,74.23
2023-01-07T17:19:24.352Z,74.44
2023-01-07T17:24:48.541Z,74.24
2023-01-07T17:29:50.060Z,75.32
2023-01-07T17:34:51.061Z,74.96
2023-01-07T17:39:53.183Z,74.55
2023-01-07T17:44:54.011Z,75.05
2023-01-07T17:49:54.785Z,75.44
2023-01-07T17:54:57.015Z,75.27
2023-01-07T17:59:58.135Z,75.34
2023-01-07T18:04:58.865Z,80.51
2023-01-07T18:10:00.892Z,78.30
2023-01-07T18:15:03.245Z,76.08
2023-01-07T18:20:03.990Z,77.02
2023-01-07T18:25:06.972Z,77.42
2023-01-07T18:30:11.007Z,79.01
2023-01-07T18:35:12.396Z,77.37
2023-01-07T18:40:14.707Z,76.95
2023-01-07T18:45:15.817Z,77.37
2023-01-07T18:50:18.064Z,77.52
2023-01-07T18:55:21.023Z,77.51
2023-01-07T19:00:22.181Z,78.49
2023-01-07T19:05:22.885Z,78.90
2023-01-07T19:10:26.465Z,78.46
2023-01-07T19:15:27.172Z,79.56
2023-01-07T19:20:27.865Z,80.28
2023-01-07T19:25:30.526Z,79.57
2023-01-07T19:30:31.317Z,80.97
2023-01-07T19:35:32.270Z,80.07
2023-01-07T19:40:34.362Z,80.46
2023-01-07T19:45:35.160Z,80.79
2023-01-07T19:50:35.956Z,81.24
2023-01-07T19:55:37.958Z,81.52
2023-01-07T20:00:38.637Z,80.54
2023-01-07T20:05:39.793Z,80.56
2023-01-07T20:10:43.996Z,81.61
2023-01-07T20:15:47.256Z,81.15
2023-01-07T20:20:56.092Z,82.03
2023-01-07T20:26:00.058Z,81.60
2023-01-07T20:31:00.831Z,82.52
2023-01-07T20:36:02.459Z,82.14
2023-01-07T20:41:05.596Z,82.65
2023-01-07T20:46:08.504Z,82.91
2023-01-07T20:51:10.125Z,83.36
2023-01-07T20:56:12.473Z,82.74
2023-01-07T21:01:17.320Z,82.90
2023-01-07T21:06:20.242Z,83.20
2023-01-07T21:11:24.598Z,83.07
2023-01-07T21:16:27.481Z,83.58
2023-01-07T21:21:28.426Z,83.03
2023-01-07T21:26:30.511Z,83.15
2023-01-07T21:31:31.309Z,83.42
2023-01-07T21:36:32.072Z,83.57
2023-01-07T21:41:34.172Z,83.61
2023-01-07T21:46:34.849Z,83.57
2023-01-07T21:51:35.534Z,84.03
2023-01-07T21:56:37.526Z,83.25
2023-01-07T22:01:38.516Z,84.00
2023-01-07T22:06:39.363Z,84.63
2023-01-07T22:11:42.373Z,84.27
2023-01-07T22:16:43.844Z,84.11
2023-01-07T22:21:44.576Z,83.64
2023-01-07T22:26:46.614Z,83.63
2023-01-07T22:31:49.728Z,83.75
2023-01-07T22:36:55.124Z,83.82
2023-01-07T22:42:01.478Z,82.75
2023-01-07T22:47:03.260Z,82.07
2023-01-07T22:52:04.161Z,82.65
2023-01-07T22:57:09.021Z,82.22
2023-01-07T23:02:09.880Z,81.20
2023-01-07T23:07:10.547Z,80.97
2023-01-07T23:12:13.468Z,80.48
2023-01-07T23:17:14.131Z,79.71
2023-01-07T23:22:14.818Z,79.99
2023-01-07T23:27:16.831Z,80.42
2023-01-07T23:32:17.503Z,79.66
2023-01-07T23:37:18.245Z,80.45
2023-01-07T23:42:20.287Z,80.68
2023-01-07T23:47:20.945Z,80.58
2023-01-07T23:52:21.583Z,81.00
2023-01-07T23:57:23.590Z,79.71
